Time;durP1;ratioP1;P1;durP2;ratioP2;P2;SDS_P1;SDS_P2;PMS_P1;PMS_P2;Temp;Humidity;BMP_temperature;BMP_pressure;BME280_temperature;BME280_humidity;BME280_pressure;Samples;Min_cycle;Max_cycle;Signal;HPM_P1;HPM_P2
2021/11/01 00:01:20;;;;;;;0.10;0.10;;;;;;;12.70;67.16;99767.63;5052724;28;20033;-82
2021/11/01 00:03:47;;;;;;;0.10;0.10;;;;;;;12.70;67.57;99762.31;5045015;28;20033;-82
2021/11/01 00:06:13;;;;;;;0.10;0.10;;;;;;;12.67;67.32;99762.44;5051689;28;20087;-83
2021/11/01 00:08:41;;;;;;;0.10;0.10;;;;;;;12.57;67.56;99756.66;5052709;28;20037;-82
2021/11/01 00:11:08;;;;;;;3.80;2.15;;;;;;;12.50;68.16;99761.41;5047446;28;20061;-82
2021/11/01 00:13:34;;;;;;;0.10;0.10;;;;;;;12.50;67.49;99771.16;5052968;28;20099;-83
2021/11/01 00:16:01;;;;;;;0.10;0.10;;;;;;;12.47;67.70;99772.16;5052741;28;20025;-82
2021/11/01 00:18:27;;;;;;;0.10;0.10;;;;;;;12.44;68.08;99765.19;5051447;28;20048;-82
2021/11/01 00:20:53;;;;;;;0.10;0.10;;;;;;;12.47;67.70;99766.84;5052870;28;20039;-82
2021/11/01 00:23:20;;;;;;;0.10;0.10;;;;;;;12.41;67.71;99764.47;5052763;28;20475;-82
2021/11/01 00:25:46;;;;;;;0.32;0.32;;;;;;;12.42;67.74;99764.44;5053026;28;20108;-83
2021/11/01 00:28:14;;;;;;;0.10;0.10;;;;;;;12.37;68.22;99765.53;5052606;28;20033;-83
2021/11/01 00:30:41;;;;;;;0.10;0.10;;;;;;;12.40;68.15;99770.72;5052281;28;20055;-82
2021/11/01 00:33:07;;;;;;;0.10;0.10;;;;;;;12.40;67.99;99773.38;5052370;28;20432;-82
2021/11/01 00:35:34;;;;;;;0.80;0.73;;;;;;;12.30;67.84;99765.81;5051448;28;20058;-82
2021/11/01 00:38:00;;;;;;;0.10;0.10;;;;;;;12.37;68.08;99762.88;5051024;28;20415;-82
2021/11/01 00:40:26;;;;;;;0.63;0.63;;;;;;;12.28;68.28;99767.66;5042344;28;20138;-82
2021/11/01 00:42:53;;;;;;;0.10;0.10;;;;;;;12.32;67.88;99763.09;5047623;28;20025;-83
2021/11/01 00:45:19;;;;;;;0.10;0.10;;;;;;;12.35;67.67;99740.84;5045851;28;20040;-82
2021/11/01 00:47:46;;;;;;;0.10;0.10;;;;;;;12.30;68.19;99749.03;5051797;28;20029;-82
2021/11/01 00:50:14;;;;;;;0.10;0.10;;;;;;;12.33;67.84;99745.38;5045545;28;20040;-82
2021/11/01 00:52:41;;;;;;;0.10;0.10;;;;;;;12.34;67.27;99741.78;5052124;28;20032;-82
2021/11/01 00:55:17;;;;;;;0.10;0.10;;;;;;;12.27;67.51;99739.41;5051545;28;20036;-82
2021/11/01 00:57:43;;;;;;;0.10;0.10;;;;;;;12.27;67.57;99734.09;5049327;28;20372;-82
2021/11/01 01:00:10;;;;;;;0.10;0.10;;;;;;;12.18;67.18;99734.50;5052411;28;20106;-82
2021/11/01 01:02:36;;;;;;;0.10;0.10;;;;;;;12.28;66.69;99730.50;5045325;28;20048;-83
2021/11/01 01:05:04;;;;;;;0.10;0.10;;;;;;;12.29;66.73;99736.69;5048819;28;20483;-83
2021/11/01 01:07:31;;;;;;;0.05;0.05;;;;;;;12.29;66.86;99732.22;5051378;28;20032;-82
2021/11/01 01:09:58;;;;;;;0.20;0.20;;;;;;;12.24;66.56;99728.91;5043336;28;20399;-83
2021/11/01 01:12:25;;;;;;;0.10;0.10;;;;;;;12.26;67.02;99723.53;5050720;28;20086;-83
2021/11/01 01:14:56;;;;;;;0.10;0.10;;;;;;;12.24;66.48;99731.56;5051970;28;20025;-83
2021/11/01 01:17:24;;;;;;;0.17;0.17;;;;;;;12.32;67.08;99725.06;5045415;28;20423;-83
2021/11/01 01:19:58;;;;;;;0.10;0.10;;;;;;;12.23;67.01;99723.69;5050801;28;20031;-83
2021/11/01 01:22:29;;;;;;;0.10;0.10;;;;;;;12.25;66.74;99727.97;5044119;28;20033;-83
2021/11/01 01:25:02;;;;;;;0.10;0.10;;;;;;;12.18;66.59;99725.69;5051758;28;20116;-82
2021/11/01 01:27:29;;;;;;;0.17;0.17;;;;;;;12.14;66.58;99716.97;5051127;28;20115;-82
2021/11/01 01:29:55;;;;;;;0.10;0.10;;;;;;;12.08;66.71;99719.91;5051112;28;20446;-82
2021/11/01 01:32:21;;;;;;;0.73;0.73;;;;;;;12.03;66.94;99713.94;5051560;28;20108;-82
2021/11/01 01:34:49;;;;;;;0.10;0.10;;;;;;;12.04;67.25;99708.56;5052287;28;20033;-81
2021/11/01 01:37:16;;;;;;;0.10;0.10;;;;;;;12.07;66.81;99704.91;5051982;28;20380;-81
2021/11/01 01:39:42;;;;;;;0.20;0.20;;;;;;;12.01;67.20;99705.19;5045500;28;20059;-81
2021/11/01 01:42:09;;;;;;;0.13;0.13;;;;;;;11.95;67.01;99700.94;5051138;28;20037;-81
2021/11/01 01:44:37;;;;;;;3.30;2.78;;;;;;;12.01;67.48;99691.91;5044636;28;20041;-81
2021/11/01 01:47:04;;;;;;;0.10;0.10;;;;;;;12.02;66.99;99685.66;5048828;28;20039;-81
2021/11/01 01:49:31;;;;;;;0.10;0.10;;;;;;;11.98;67.07;99688.44;5039528;28;20029;-81
2021/11/01 01:51:57;;;;;;;0.10;0.10;;;;;;;11.98;66.72;99685.78;5045254;28;20035;-81
2021/11/01 01:54:23;;;;;;;0.10;0.10;;;;;;;11.97;66.80;99688.53;5051197;28;20029;-81
2021/11/01 01:56:50;;;;;;;0.10;0.10;;;;;;;12.02;66.77;99680.38;5051044;28;20029;-81
2021/11/01 01:59:18;;;;;;;0.10;0.10;;;;;;;12.02;66.37;99680.38;5049393;28;20500;-81
2021/11/01 02:01:46;;;;;;;0.10;0.10;;;;;;;11.96;66.76;99681.47;5046278;28;20865;-81
2021/11/01 02:04:15;;;;;;;0.10;0.10;;;;;;;11.92;66.70;99679.88;5051581;28;20478;-81
2021/11/01 02:07:08;;;;;;;0.10;0.10;;;;;;;11.93;66.40;99679.78;5043978;28;20041;-81
2021/11/01 02:10:10;;;;;;;0.10;0.10;;;;;;;12.01;66.52;99678.63;5038705;28;20029;-81
2021/11/01 02:13:08;;;;;;;0.10;0.10;;;;;;;12.01;66.68;99675.97;5051097;28;20029;-82
2021/11/01 02:15:47;;;;;;;0.10;0.10;;;;;;;11.97;66.90;99669.94;5050262;28;20036;-81
2021/11/01 02:18:20;;;;;;;0.10;0.10;;;;;;;11.96;66.80;99677.06;5050810;28;20083;-81
2021/11/01 02:26:25;;;;;;;0.08;0.08;;;;;;;11.71;66.65;99686.97;5076846;28;20458;-81
2021/11/01 02:28:52;;;;;;;0.10;0.10;;;;;;;11.73;67.54;99683.31;5057556;28;20079;-81
2021/11/01 02:31:21;;;;;;;0.10;0.10;;;;;;;11.77;66.60;99697.34;5056563;28;20033;-81
2021/11/01 02:33:49;;;;;;;0.10;0.10;;;;;;;11.73;67.47;99695.75;5054439;28;20071;-82
2021/11/01 02:36:16;;;;;;;0.10;0.10;;;;;;;11.80;67.13;99707.78;5053098;28;20037;-82
2021/11/01 02:38:44;;;;;;;0.73;0.70;;;;;;;11.85;67.63;99700.53;5054443;28;20032;-82
2021/11/01 02:41:27;;;;;;;0.40;0.40;;;;;;;12.01;66.78;99702.53;5055096;28;20037;-82
2021/11/01 02:43:57;;;;;;;0.10;0.10;;;;;;;11.98;66.91;99707.03;5053897;28;20629;-82
2021/11/01 02:46:25;;;;;;;0.47;0.47;;;;;;;11.89;67.18;99710.06;5059420;28;20042;-82
2021/11/01 02:48:54;;;;;;;0.80;0.80;;;;;;;11.93;67.18;99709.00;5056785;28;20438;-82
2021/11/01 02:51:22;;;;;;;0.10;0.10;;;;;;;11.94;66.72;99696.59;5062185;28;20116;-82
2021/11/01 02:53:50;;;;;;;0.05;0.05;;;;;;;11.92;67.14;99696.66;5055011;28;20029;-82
2021/11/01 02:56:16;;;;;;;0.10;0.10;;;;;;;11.94;67.30;99699.25;5051437;28;20060;-82
2021/11/01 02:58:44;;;;;;;0.55;0.55;;;;;;;11.97;66.75;99689.41;5050472;28;20131;-81
2021/11/01 03:01:15;;;;;;;0.10;0.10;;;;;;;11.98;66.95;99693.75;5055152;28;20040;-81
2021/11/01 03:03:43;;;;;;;0.35;0.35;;;;;;;11.91;66.71;99684.34;5058032;28;20110;-81
2021/11/01 03:06:11;;;;;;;0.10;0.10;;;;;;;11.88;67.06;99689.75;5057290;28;20568;-81
2021/11/01 03:08:38;;;;;;;0.10;0.10;;;;;;;11.94;67.21;99694.78;5055341;28;20060;-82
2021/11/01 03:11:06;;;;;;;0.10;0.10;;;;;;;11.91;67.47;99689.63;5052827;28;20025;-81
2021/11/01 03:13:34;;;;;;;0.10;0.10;;;;;;;12.01;67.03;99691.91;5052113;28;20025;-82
2021/11/01 03:16:04;;;;;;;0.10;0.10;;;;;;;12.03;66.65;99698.88;5049299;28;20029;-82
2021/11/01 03:18:39;;;;;;;0.10;0.10;;;;;;;11.95;67.23;99685.91;5059392;28;20033;-81
2021/11/01 03:21:07;;;;;;;0.00;0.00;;;;;;;11.90;67.30;99687.91;5055705;28;20392;-81
2021/11/01 03:23:34;;;;;;;0.10;0.10;;;;;;;11.99;66.81;99697.28;5057438;28;20021;-81
2021/11/01 03:26:05;;;;;;;0.10;0.10;;;;;;;12.03;66.99;99687.41;5054954;28;20116;-81
2021/11/01 03:28:33;;;;;;;0.10;0.10;;;;;;;12.03;67.34;99687.41;5052646;28;20037;-81
2021/11/01 03:31:03;;;;;;;0.10;0.10;;;;;;;12.09;66.75;99689.78;5059491;28;20029;-81
2021/11/01 03:33:37;;;;;;;0.10;0.10;;;;;;;12.05;66.87;99694.38;5058106;28;20036;-82
2021/11/01 03:36:05;;;;;;;0.10;0.10;;;;;;;11.98;66.44;99688.44;5045092;28;20076;-81
2021/11/01 03:38:32;;;;;;;0.10;0.10;;;;;;;12.03;66.72;99687.41;5041661;28;20060;-81
2021/11/01 03:41:00;;;;;;;0.10;0.10;;;;;;;12.01;66.85;99686.59;5042127;28;20036;-81
2021/11/01 03:43:28;;;;;;;0.10;0.10;;;;;;;12.01;67.12;99684.78;5036784;28;20112;-82
2021/11/01 03:45:56;;;;;;;0.10;0.10;;;;;;;12.09;66.61;99687.97;5037683;28;20152;-81
2021/11/01 03:48:23;;;;;;;5.88;2.17;;;;;;;12.06;66.43;99684.59;5039716;28;20524;-81
2021/11/01 03:50:59;;;;;;;0.10;0.10;;;;;;;12.07;66.46;99684.53;5036906;28;20112;-81
2021/11/01 03:53:26;;;;;;;0.10;0.10;;;;;;;12.04;66.40;99686.47;5042310;28;20131;-82
2021/11/01 03:55:52;;;;;;;0.10;0.10;;;;;;;11.97;66.53;99685.88;5035639;28;20451;-81
2021/11/01 03:58:19;;;;;;;0.13;0.13;;;;;;;11.97;66.96;99688.53;5037811;28;20033;-81
2021/11/01 04:00:45;;;;;;;0.10;0.10;;;;;;;11.88;66.55;99680.94;5041596;28;20033;-82
2021/11/01 04:03:11;;;;;;;0.10;0.10;;;;;;;11.91;66.71;99684.34;5044194;28;20037;-81
2021/11/01 04:05:38;;;;;;;0.10;0.10;;;;;;;11.88;67.02;99678.28;5037519;28;20053;-82
2021/11/01 04:08:05;;;;;;;0.10;0.10;;;;;;;11.76;67.37;99680.56;5043692;28;20428;-82
2021/11/01 04:10:31;;;;;;;0.10;0.10;;;;;;;11.70;67.22;99680.81;5047911;28;20032;-81
2021/11/01 04:12:57;;;;;;;6.78;1.77;;;;;;;11.81;67.06;99677.69;5038809;28;20122;-82
2021/11/01 04:15:25;;;;;;;0.10;0.10;;;;;;;11.82;66.74;99684.72;5041900;28;20031;-81
2021/11/01 04:17:57;;;;;;;0.10;0.10;;;;;;;11.85;66.79;99684.59;5034287;28;20367;-81
2021/11/01 04:20:29;;;;;;;0.20;0.20;;;;;;;11.82;66.65;99685.59;5038451;28;20435;-81
2021/11/01 04:23:00;;;;;;;0.10;0.10;;;;;;;11.85;66.88;99684.59;5036272;28;20036;-81
2021/11/01 04:25:28;;;;;;;0.10;0.10;;;;;;;11.78;66.80;99678.69;5035847;28;20059;-81
2021/11/01 04:27:56;;;;;;;0.10;0.10;;;;;;;11.81;66.80;99672.38;5048679;28;20526;-81
2021/11/01 04:30:23;;;;;;;0.10;0.10;;;;;;;11.84;66.50;99671.38;5042108;28;20026;-81
2021/11/01 04:32:54;;;;;;;0.10;0.10;;;;;;;11.86;66.66;99673.03;5037589;28;20496;-81
2021/11/01 04:35:24;;;;;;;0.10;0.10;;;;;;;11.85;66.70;99670.44;5035915;28;20455;-82
2021/11/01 04:37:58;;;;;;;0.10;0.10;;;;;;;11.87;67.03;99677.41;5050336;28;20025;-81
2021/11/01 04:40:29;;;;;;;0.10;0.10;;;;;;;11.82;66.94;99684.72;5045319;28;20040;-81
2021/11/01 04:53:59;;;;;;;0.10;0.10;;;;;;;11.74;67.12;99686.84;5049527;28;20044;-81
2021/11/01 04:56:26;;;;;;;0.10;0.10;;;;;;;11.79;67.00;99684.88;5049449;28;20055;-81
2021/11/01 04:58:58;;;;;;;0.10;0.10;;;;;;;11.72;66.51;99689.56;5049933;28;20055;-81
2021/11/01 05:01:33;;;;;;;;;;;;;;;11.86;66.38;99696.91;5055257;28;20059;-81
2021/11/01 05:04:05;;;;;;;0.20;0.20;;;;;;;11.68;66.77;99697.75;5053700;28;19924;-81
2021/11/01 05:06:31;;;;;;;0.10;0.10;;;;;;;11.68;66.88;99700.41;5057204;28;20028;-81
2021/11/01 05:09:06;;;;;;;0.10;0.10;;;;;;;11.58;67.16;99697.28;5067086;28;20083;-81
2021/11/01 05:11:37;;;;;;;0.10;0.10;;;;;;;11.53;67.16;99700.09;5051625;28;20029;-81
2021/11/01 05:14:03;;;;;;;0.10;0.10;;;;;;;11.57;67.18;99706.16;5051787;28;20101;-81
2021/11/01 05:16:38;;;;;;;0.10;0.10;;;;;;;11.55;67.38;99703.56;5046917;28;20028;-81
2021/11/01 05:19:10;;;;;;;0.32;0.32;;;;;;;11.55;67.69;99702.69;5061296;28;20048;-81
2021/11/01 05:21:53;;;;;;;0.17;0.17;;;;;;;11.67;67.23;99703.97;5062072;28;20439;-81
2021/11/01 05:24:27;;;;;;;0.10;0.10;;;;;;;11.61;67.47;99700.66;5047038;28;20041;-81
2021/11/01 05:27:10;;;;;;;0.10;0.10;;;;;;;11.62;67.40;99694.41;5051230;28;20422;-81
2021/11/01 05:29:37;;;;;;;0.20;0.20;;;;;;;11.49;67.20;99693.22;5048388;28;20028;-81
2021/11/01 05:32:12;;;;;;;0.10;0.10;;;;;;;11.54;67.13;99696.53;5061850;28;20028;-81
2021/11/01 05:34:38;;;;;;;0.10;0.10;;;;;;;11.54;67.58;99691.22;5067029;28;20031;-81
2021/11/01 05:37:05;;;;;;;0.10;0.10;;;;;;;11.52;67.18;99689.56;5055407;28;20040;-81
2021/11/01 05:39:32;;;;;;;0.10;0.10;;;;;;;11.47;67.35;99693.25;5047917;28;20040;-81
2021/11/01 05:41:58;;;;;;;0.70;0.70;;;;;;;11.47;67.68;99700.38;5057668;28;20021;-81
2021/11/01 05:44:24;;;;;;;0.10;0.10;;;;;;;11.55;67.40;99708.88;5064790;28;20044;-81
2021/11/01 05:46:53;;;;;;;0.10;0.10;;;;;;;11.53;67.70;99710.72;5067541;28;20036;-80
2021/11/01 05:49:22;;;;;;;0.10;0.10;;;;;;;11.60;67.15;99712.19;5053808;28;20052;-82
2021/11/01 05:51:50;;;;;;;0.20;0.20;;;;;;;11.56;67.23;99715.88;5055136;28;20535;-81
2021/11/01 05:54:18;;;;;;;0.10;0.10;;;;;;;11.65;67.01;99714.63;5051950;28;20036;-81
2021/11/01 05:56:52;;;;;;;0.10;0.10;;;;;;;11.60;66.75;99712.19;5036777;28;20030;-81
2021/11/01 05:59:45;;;;;;;0.10;0.10;;;;;;;11.62;67.05;99715.63;5037113;28;20385;-81
2021/11/01 06:02:42;;;;;;;0.10;0.10;;;;;;;11.57;66.79;99725.56;5039512;28;20036;-81
2021/11/01 06:07:56;;;;;;;0.10;0.10;;;;;;;11.68;66.77;99724.28;5110858;27;20890;-81
2021/11/01 06:13:34;;;;;;;0.20;0.20;;;;;;;11.71;65.84;99721.47;5073147;27;20411;-81
2021/11/01 06:16:02;;;;;;;0.10;0.10;;;;;;;11.77;66.18;99723.88;5068394;28;20399;-81
2021/11/01 06:18:35;;;;;;;5.88;1.70;;;;;;;11.75;66.19;99725.72;5068900;28;20025;-81
2021/11/01 06:21:04;;;;;;;0.08;0.08;;;;;;;11.73;66.74;99732.91;5057437;28;20033;-81
2021/11/01 06:23:31;;;;;;;0.10;0.10;;;;;;;11.68;66.35;99729.59;5052864;28;20526;-81
2021/11/01 06:25:57;;;;;;;0.10;0.10;;;;;;;11.74;65.77;99734.59;5051856;28;20025;-80
2021/11/01 06:28:24;;;;;;;0.10;0.10;;;;;;;11.64;66.17;99732.34;5050807;28;20539;-81
2021/11/01 06:30:54;;;;;;;0.10;0.10;;;;;;;11.68;66.07;99729.59;5053667;28;20035;-81
2021/11/01 06:42:18;;;;;;;0.10;0.10;;;;;;;11.73;65.39;99748.81;5056523;28;20065;-81
2021/11/01 06:45:09;;;;;;;0.10;0.10;;;;;;;11.69;66.31;99749.84;5055483;28;20032;-81
2021/11/01 06:50:04;;;;;;;0.10;0.10;;;;;;;11.89;65.06;99770.25;5056638;28;20045;-82
2021/11/01 06:55:38;;;;;;;0.10;0.10;;;;;;;11.95;64.87;99762.88;5069808;28;20411;-81
2021/11/01 07:14:49;;;;;;;0.10;0.10;;;;;;;12.16;64.45;99777.97;5070257;28;20545;-81
2021/11/01 07:17:39;;;;;;;0.10;0.10;;;;;;;12.08;64.91;99771.22;5059984;28;20087;-81
2021/11/01 07:20:47;;;;;;;0.10;0.10;;;;;;;12.28;64.56;99777.44;5060794;28;20035;-82
2021/11/01 08:21:27;;;;;;;0.10;0.10;;;;;;;12.54;63.09;99815.28;5062614;27;20398;-82
2021/11/01 08:30:06;;;;;;;0.20;0.20;;;;;;;12.65;62.25;99833.38;5056545;28;20052;-81
2021/11/01 08:41:09;;;;;;;0.10;0.10;;;;;;;12.71;61.86;99811.84;5104938;27;20136;-84
2021/11/01 09:01:21;;;;;;;0.10;0.10;;;;;;;12.95;61.66;99801.91;5129642;28;20067;-82
2021/11/01 09:03:19;;;;;;;0.10;0.10;;;;;;;13.21;61.29;99810.44;5118420;28;20555;-92
2021/11/01 09:11:49;;;;;;;3.33;2.22;;;;;;;13.08;60.37;99813.69;5081393;28;20416;-81
2021/11/01 09:22:41;;;;;;;0.10;0.10;;;;;;;13.24;60.05;99827.09;5070607;27;20406;-84
2021/11/01 09:25:12;;;;;;;0.10;0.10;;;;;;;13.29;59.12;99828.69;5059642;28;20414;-83
2021/11/01 09:27:42;;;;;;;0.10;0.10;;;;;;;13.39;59.50;99830.84;5057670;28;20031;-84
2021/11/01 09:35:51;;;;;;;0.10;0.10;;;;;;;13.31;59.03;99843.66;5040056;28;20405;-83
2021/11/01 09:41:07;;;;;;;0.10;0.10;;;;;;;13.47;58.72;99841.16;5043317;28;20045;-83
2021/11/01 09:43:34;;;;;;;0.10;0.10;;;;;;;13.59;58.90;99831.69;5040385;28;20075;-83
2021/11/01 09:46:03;;;;;;;0.10;0.10;;;;;;;13.67;58.88;99836.63;5044305;28;20468;-83
2021/11/01 09:48:30;;;;;;;0.10;0.10;;;;;;;13.71;58.62;99828.44;5047296;28;20025;-84
2021/11/01 09:50:57;;;;;;;0.10;0.10;;;;;;;13.83;58.06;99824.31;5042901;28;20052;-83
2021/11/01 09:53:28;;;;;;;0.10;0.10;;;;;;;13.75;57.96;99823.81;5049832;28;20033;-84
2021/11/01 09:56:06;;;;;;;0.10;0.10;;;;;;;13.79;58.16;99828.06;5042781;28;20400;-83
2021/11/01 10:01:22;;;;;;;0.10;0.10;;;;;;;13.81;56.88;99830.66;5040174;28;20546;-83
2021/11/01 10:03:51;;;;;;;0.10;0.10;;;;;;;13.80;56.97;99837.78;5044736;28;20036;-84
2021/11/01 10:06:21;;;;;;;0.10;0.10;;;;;;;13.84;56.50;99825.16;5038468;28;20022;-83
2021/11/01 10:08:50;;;;;;;0.10;0.10;;;;;;;13.97;57.20;99814.75;5047154;28;20037;-84
2021/11/01 10:11:22;;;;;;;0.10;0.10;;;;;;;14.03;57.01;99814.44;5040340;28;20448;-81
2021/11/01 10:13:53;;;;;;;0.20;0.20;;;;;;;14.18;56.95;99808.34;5041681;28;20503;-84
2021/11/01 10:19:29;;;;;;;0.10;0.10;;;;;;;14.36;56.66;99825.16;5034031;28;20433;-83
2021/11/01 10:21:59;;;;;;;0.10;0.10;;;;;;;14.33;57.17;99824.47;5040676;28;20407;-84
2021/11/01 10:24:28;;;;;;;0.10;0.10;;;;;;;14.23;56.83;99811.63;5042626;28;20395;-83
2021/11/01 10:26:56;;;;;;;0.10;0.10;;;;;;;14.33;56.92;99838.66;5042287;28;20025;-83
2021/11/01 10:29:23;;;;;;;0.10;0.10;;;;;;;14.35;56.25;99815.44;5042306;28;20124;-83
2021/11/01 10:31:49;;;;;;;0.10;0.10;;;;;;;14.39;56.03;99817.03;5029176;28;20092;-84
2021/11/01 10:34:16;;;;;;;0.10;0.10;;;;;;;14.47;56.36;99824.63;5024403;28;20558;-83
2021/11/01 10:36:46;;;;;;;0.10;0.10;;;;;;;14.39;55.70;99826.81;5028694;28;20056;-84
2021/11/01 10:39:22;;;;;;;0.10;0.10;;;;;;;14.41;55.64;99822.28;5024158;28;20041;-83
2021/11/01 10:42:05;;;;;;;0.10;0.10;;;;;;;14.48;55.39;99842.34;5018078;28;20080;-83
2021/11/01 11:13:02;;;;;;;0.10;0.10;;;;;;;15.15;54.92;99833.47;5044167;28;20072;-82
2021/11/01 11:15:30;;;;;;;0.95;0.95;;;;;;;15.27;55.30;99829.28;5043245;28;20033;-82
2021/11/01 11:18:11;;;;;;;0.10;0.10;;;;;;;15.17;54.43;99845.78;5047812;28;20044;-82
2021/11/01 11:20:51;;;;;;;0.10;0.10;;;;;;;15.28;54.87;99841.69;5045451;28;20033;-82
2021/11/01 11:23:46;;;;;;;0.10;0.10;;;;;;;15.39;54.84;99838.38;5046738;28;21504;-82
2021/11/01 11:43:54;;;;;;;0.20;0.20;;;;;;;15.76;53.06;99847.81;5049022;28;20067;-82
2021/11/01 11:49:07;;;;;;;0.10;0.10;;;;;;;15.74;51.80;99839.06;5051717;28;20053;-83
2021/11/01 11:51:34;;;;;;;0.10;0.10;;;;;;;15.90;52.60;99830.19;5049154;28;20029;-82
2021/11/01 11:54:02;;;;;;;0.10;0.10;;;;;;;15.82;51.83;99836.81;5048881;28;20514;-82
2021/11/01 11:56:35;;;;;;;0.47;0.47;;;;;;;15.78;50.50;99829.06;5051221;28;20032;-84
2021/11/01 11:59:04;;;;;;;0.10;0.10;;;;;;;15.87;51.18;99825.03;5049831;28;20029;-82
2021/11/01 12:01:34;;;;;;;0.38;0.38;;;;;;;15.94;51.56;99818.38;5052208;28;20033;-82
2021/11/01 12:04:07;;;;;;;0.10;0.10;;;;;;;15.94;51.04;99834.41;5050254;28;20408;-82
2021/11/01 12:06:59;;;;;;;0.10;0.10;;;;;;;15.97;50.75;99826.19;5050376;28;20029;-82
2021/11/01 12:09:30;;;;;;;0.10;0.10;;;;;;;15.98;50.86;99827.94;5056384;28;20424;-82
2021/11/01 12:17:34;;;;;;;0.10;0.10;;;;;;;16.06;51.13;99831.00;5054635;28;20510;-82
2021/11/01 12:20:09;;;;;;;0.10;0.10;;;;;;;16.09;50.35;99822.81;5051921;28;20105;-83
2021/11/01 12:22:43;;;;;;;0.57;0.57;;;;;;;16.30;50.63;99814.47;5042947;28;20048;-83
2021/11/01 12:25:14;;;;;;;0.10;0.10;;;;;;;16.22;50.61;99822.06;5046097;28;20101;-82
2021/11/01 12:27:51;;;;;;;0.10;0.10;;;;;;;16.33;50.28;99824.97;5042704;28;20168;-84
2021/11/01 12:30:19;;;;;;;0.10;0.10;;;;;;;16.31;50.30;99818.84;5044379;28;20037;-84
2021/11/01 12:32:46;;;;;;;0.10;0.10;;;;;;;16.29;49.29;99818.94;5047058;28;20025;-83
2021/11/01 12:35:19;;;;;;;0.10;0.10;;;;;;;16.33;50.39;99820.47;5047578;28;20052;-83
2021/11/01 12:38:08;;;;;;;0.00;0.00;;;;;;;16.28;50.85;99817.22;5043518;28;20091;-83
2021/11/01 12:40:48;;;;;;;0.10;0.10;;;;;;;16.37;50.42;99821.13;5041436;28;20033;-84
2021/11/01 12:43:53;;;;;;;0.03;0.03;;;;;;;16.30;50.59;99827.84;5045370;28;20396;-84
2021/11/01 12:46:45;;;;;;;1.33;1.30;;;;;;;16.15;50.18;99825.13;5043356;28;20099;-82
2021/11/01 12:49:07;;;;;;;0.10;0.10;;;;;;;16.28;50.32;99833.25;5038411;28;20048;-84
2021/11/01 12:57:31;;;;;;;0.10;0.10;;;;;;;16.32;50.30;99825.91;5033746;28;20099;-83
2021/11/01 12:59:58;;;;;;;;;;;;;;;16.44;50.24;99838.53;5043931;28;20124;-83
2021/11/01 13:05:26;;;;;;;0.10;0.10;;;;;;;16.29;50.56;99834.13;5072568;27;20391;-83
2021/11/01 13:07:58;;;;;;;0.10;0.10;;;;;;;16.34;50.95;99824.00;5068887;28;20438;-83
2021/11/01 13:13:44;;;;;;;0.10;0.10;;;;;;;16.35;51.24;99831.09;5072047;27;20575;-83
2021/11/01 13:19:14;;;;;;;0.10;0.10;;;;;;;16.60;51.46;99826.91;5049758;28;20044;-81
2021/11/01 13:21:48;;;;;;;0.97;0.97;;;;;;;16.28;51.37;99814.53;5042169;28;20029;-82
2021/11/01 13:24:16;;;;;;;0.10;0.10;;;;;;;16.48;50.93;99807.97;5036380;28;20322;-83
2021/11/01 13:27:08;;;;;;;0.10;0.10;;;;;;;16.63;51.24;99822.22;5032474;28;20030;-85
2021/11/01 13:34:45;;;;;;;0.20;0.20;;;;;;;16.48;50.04;99821.34;5032651;28;20042;-85
2021/11/01 13:38:28;;;;;;;0.40;0.40;;;;;;;16.31;50.87;99819.72;5070016;27;20229;-83
2021/11/01 13:40:55;;;;;;;0.38;0.38;;;;;;;16.00;52.15;99824.22;5040018;28;20034;-83
2021/11/01 13:43:30;;;;;;;0.10;0.10;;;;;;;16.12;52.33;99838.63;5045619;28;20472;-83
2021/11/01 13:46:00;;;;;;;0.10;0.10;;;;;;;16.08;52.38;99821.09;5050831;28;20484;-83
2021/11/01 13:48:29;;;;;;;0.00;0.00;;;;;;;16.23;51.94;99813.13;5051738;28;20033;-83
2021/11/01 13:51:08;;;;;;;0.15;0.15;;;;;;;16.33;52.20;99820.47;5049682;28;20029;-84
2021/11/01 13:53:43;;;;;;;0.10;0.10;;;;;;;16.08;52.11;99826.44;5049810;28;20037;-83
2021/11/01 13:56:31;;;;;;;0.20;0.20;;;;;;;16.04;52.03;99818.66;5049277;28;20055;-83
2021/11/01 13:59:00;;;;;;;0.43;0.43;;;;;;;16.03;52.84;99807.13;5047571;28;20038;-84
2021/11/01 14:01:44;;;;;;;0.20;0.20;;;;;;;16.02;52.49;99818.78;5042502;28;20108;-83
2021/11/01 14:12:39;;;;;;;0.00;0.00;;;;;;;15.76;53.02;99810.44;5042446;28;20042;-83
2021/11/01 14:15:11;;;;;;;0.10;0.10;;;;;;;15.55;53.18;99811.69;5042936;28;20033;-83
2021/11/01 14:20:43;;;;;;;0.10;0.10;;;;;;;15.52;54.21;99810.91;5079339;28;20420;-82
2021/11/01 14:29:00;;;;;;;0.10;0.10;;;;;;;15.26;54.16;99823.06;5041735;28;20037;-84
2021/11/01 14:31:47;;;;;;;0.10;0.10;;;;;;;15.24;54.22;99818.75;5039551;28;20461;-83
2021/11/01 15:10:27;;;;;;;0.13;0.13;;;;;;;13.39;62.01;99853.94;5045719;28;20060;-84
2021/11/01 15:13:19;;;;;;;0.10;0.10;;;;;;;13.32;61.70;99863.13;5045193;28;20030;-83
2021/11/01 15:18:41;;;;;;;0.10;0.10;;;;;;;13.00;62.90;99857.53;5043308;28;20045;-82
2021/11/01 15:21:17;;;;;;;0.08;0.08;;;;;;;13.02;62.72;99853.84;5039239;28;20061;-82
2021/11/01 15:24:25;;;;;;;0.10;0.10;;;;;;;12.88;62.87;99862.44;5038960;28;20037;-83
2021/11/01 15:26:57;;;;;;;0.00;0.00;;;;;;;12.86;62.98;99861.66;5042437;28;20497;-83
2021/11/01 15:29:35;;;;;;;0.10;0.10;;;;;;;12.70;63.26;99860.63;5043221;28;20042;-83
2021/11/01 16:19:09;;;;;;;0.00;0.00;;;;;;;12.55;64.30;99864.84;5066762;28;20134;-82
2021/11/01 16:21:36;;;;;;;0.10;0.10;;;;;;;12.39;65.11;99872.59;5052266;28;20472;-82
2021/11/01 16:24:02;;;;;;;0.10;0.10;;;;;;;12.38;63.66;99881.50;5042210;28;20033;-83
2021/11/01 16:26:30;;;;;;;0.10;0.10;;;;;;;12.27;64.29;99877.53;5050724;28;20472;-83
2021/11/01 16:29:04;;;;;;;0.10;0.10;;;;;;;12.19;64.63;99879.63;5041449;28;20064;-82
2021/11/01 16:31:50;;;;;;;0.10;0.10;;;;;;;12.13;64.60;99879.88;5053141;28;20025;-83
2021/11/01 16:34:22;;;;;;;0.08;0.08;;;;;;;12.05;64.61;99877.56;5045345;28;20056;-81
2021/11/01 16:39:47;;;;;;;5.35;2.83;;;;;;;11.94;64.56;99890.38;5101233;27;20403;-81
2021/11/01 16:42:17;;;;;;;0.15;0.15;;;;;;;11.90;65.03;99889.63;5085410;28;20148;-80
2021/11/01 16:44:43;;;;;;;0.10;0.10;;;;;;;11.83;64.62;99888.16;5084250;28;20117;-81
2021/11/01 16:47:10;;;;;;;0.10;0.10;;;;;;;11.76;64.50;99891.97;5082635;28;20032;-80
2021/11/01 16:49:37;;;;;;;0.10;0.10;;;;;;;11.65;65.53;99890.63;5077277;28;20124;-80
2021/11/01 16:52:14;;;;;;;0.10;0.10;;;;;;;11.66;65.52;99888.81;5089500;28;20052;-81
2021/11/01 16:54:43;;;;;;;0.10;0.10;;;;;;;11.57;65.21;99892.69;5087692;28;20029;-80
2021/11/01 16:57:17;;;;;;;0.10;0.10;;;;;;;11.49;65.88;99894.81;5083486;28;20094;-80
2021/11/01 17:02:45;;;;;;;0.08;0.08;;;;;;;11.49;65.90;99900.13;5065161;27;21242;-80
2021/11/01 17:08:24;;;;;;;0.10;0.10;;;;;;;11.48;65.79;99904.53;5051320;27;20429;-81
2021/11/01 17:11:02;;;;;;;0.10;0.10;;;;;;;11.40;65.76;99905.75;5063603;28;20048;-80
2021/11/01 17:22:10;;;;;;;0.10;0.10;;;;;;;11.33;66.24;99913.09;5060329;28;20072;-82
2021/11/01 17:24:47;;;;;;;0.10;0.10;;;;;;;11.30;65.97;99913.19;5056005;28;20029;-81
2021/11/01 17:30:43;;;;;;;0.20;0.20;;;;;;;11.22;66.02;99913.50;5059681;28;20430;-81
2021/11/01 17:36:16;;;;;;;0.10;0.10;;;;;;;11.16;66.11;99926.97;5024822;28;20049;-80
2021/11/01 18:24:40;;;;;;;0.10;0.10;;;;;;;11.03;67.41;99917.75;5058193;27;20457;-80
2021/11/01 18:38:06;;;;;;;0.10;0.10;;;;;;;10.85;68.17;99957.25;5043770;28;20077;-84
2021/11/01 18:40:38;;;;;;;1.98;1.88;;;;;;;10.80;68.49;99949.47;5044434;28;20057;-82
2021/11/01 18:46:15;;;;;;;0.10;0.10;;;;;;;10.82;68.10;99947.63;5044470;28;20033;-83
2021/11/01 18:51:34;;;;;;;0.10;0.10;;;;;;;10.79;68.27;99968.94;5038995;28;20418;-84
2021/11/01 18:56:57;;;;;;;0.10;0.10;;;;;;;10.73;68.32;99963.84;5072856;27;20894;-84
2021/11/01 18:59:26;;;;;;;0.10;0.10;;;;;;;10.73;68.41;99973.56;5066304;28;20055;-84
2021/11/01 19:02:08;;;;;;;1.95;1.00;;;;;;;10.68;68.47;99969.31;5045638;28;20060;-85
2021/11/01 19:04:42;;;;;;;0.10;0.10;;;;;;;10.75;67.76;99964.66;5046368;28;20061;-84
2021/11/01 19:07:17;;;;;;;0.10;0.10;;;;;;;10.72;68.29;99977.16;5047005;28;20037;-86
2021/11/01 19:09:57;;;;;;;0.08;0.08;;;;;;;10.65;68.21;99976.50;5047775;28;20030;-83
2021/11/01 19:13:09;;;;;;;0.10;0.10;;;;;;;10.70;68.27;99973.69;5048270;28;20029;-84
2021/11/01 20:02:31;;;;;;;0.15;0.15;;;;;;;10.70;67.91;99990.44;5048374;28;20172;-84